Time;durP1;ratioP1;P1;durP2;ratioP2;P2;SDS_P1;SDS_P2;PMS_P1;PMS_P2;Temp;Humidity;BMP_temperature;BMP_pressure;BME280_temperature;BME280_humidity;BME280_pressure;Samples;Min_cycle;Max_cycle;Signal;HPM_P1;HPM_P2
2022/08/24 00:00:02;;;;;;;2.13;1.30;;;17.00;56.60;;;;;;4975872;28;20222;-34
2022/08/24 00:02:33;;;;;;;2.03;1.35;;;17.10;56.60;;;;;;4979658;28;20226;-40
2022/08/24 00:05:03;;;;;;;2.42;1.58;;;17.10;56.50;;;;;;4973514;28;20213;-37
2022/08/24 00:07:34;;;;;;;2.28;1.48;;;17.10;56.60;;;;;;4972594;28;20205;-36
2022/08/24 00:10:06;;;;;;;1.48;1.20;;;17.20;56.60;;;;;;4973694;28;20604;-35
2022/08/24 00:12:37;;;;;;;1.83;1.48;;;17.20;56.50;;;;;;4971761;28;20222;-35
2022/08/24 00:15:12;;;;;;;1.90;1.10;;;17.20;56.60;;;;;;4972985;28;20190;-35
2022/08/24 00:17:43;;;;;;;2.80;1.35;;;17.30;56.70;;;;;;4974461;28;20201;-35
2022/08/24 00:20:15;;;;;;;2.72;1.40;;;17.30;56.70;;;;;;4971982;28;20235;-35
2022/08/24 00:22:46;;;;;;;1.92;1.17;;;17.30;56.50;;;;;;4970930;28;20673;-34
2022/08/24 00:25:18;;;;;;;1.33;1.10;;;17.30;56.40;;;;;;4989291;28;20206;-35
2022/08/24 00:27:49;;;;;;;2.17;1.73;;;17.40;56.40;;;;;;4977200;28;20194;-34
2022/08/24 00:30:23;;;;;;;1.73;1.10;;;17.40;56.30;;;;;;4972159;28;20229;-34
2022/08/24 00:32:54;;;;;;;1.35;0.95;;;17.50;56.20;;;;;;4969902;28;20693;-34
2022/08/24 00:35:26;;;;;;;1.45;1.02;;;17.40;56.10;;;;;;4952948;28;20207;-34
2022/08/24 00:37:57;;;;;;;2.22;1.10;;;17.50;56.20;;;;;;4967090;28;20206;-35
2022/08/24 00:40:32;;;;;;;1.20;0.90;;;17.50;56.20;;;;;;4976448;28;20229;-34
2022/08/24 00:43:04;;;;;;;2.00;1.20;;;17.60;56.20;;;;;;4977083;28;20225;-34
2022/08/24 00:45:42;;;;;;;1.25;0.90;;;17.60;56.10;;;;;;4972828;28;20213;-35
2022/08/24 00:48:18;;;;;;;1.58;1.00;;;17.70;56.10;;;;;;4973005;28;20202;-34
2022/08/24 00:50:52;;;;;;;1.88;1.17;;;17.70;56.10;;;;;;4972269;28;20258;-41
2022/08/24 00:53:26;;;;;;;1.48;1.20;;;17.70;56.10;;;;;;4972290;28;20226;-35
2022/08/24 00:55:59;;;;;;;2.38;1.27;;;17.70;56.10;;;;;;4972772;28;20197;-35
2022/08/24 00:58:35;;;;;;;1.25;0.95;;;17.80;56.10;;;;;;4972469;28;20202;-42
2022/08/24 01:01:10;;;;;;;1.75;1.02;;;17.80;55.90;;;;;;4972053;28;20716;-36
2022/08/24 01:03:41;;;;;;;1.48;0.95;;;17.80;55.90;;;;;;4971486;28;20220;-34
2022/08/24 01:06:12;;;;;;;1.55;0.98;;;17.90;55.90;;;;;;4972165;28;20197;-36
2022/08/24 01:08:44;;;;;;;1.65;1.08;;;17.90;55.80;;;;;;4971539;28;20195;-37
2022/08/24 01:11:19;;;;;;;1.05;0.90;;;17.90;55.80;;;;;;4968359;28;20218;-35
2022/08/24 01:13:52;;;;;;;1.38;1.10;;;18.00;55.90;;;;;;4971690;28;20232;-35
2022/08/24 01:19:14;;;;;;;2.30;1.38;;;18.00;55.80;;;;;;4952244;29;20201;-35
2022/08/24 01:21:53;;;;;;;1.35;1.00;;;18.10;55.90;;;;;;4955693;28;20202;-34
2022/08/24 01:24:26;;;;;;;1.40;1.15;;;18.10;55.80;;;;;;4991480;28;20571;-39
2022/08/24 01:26:56;;;;;;;2.28;1.25;;;18.10;55.80;;;;;;4988073;28;20186;-38
2022/08/24 01:29:30;;;;;;;1.50;0.80;;;18.10;55.80;;;;;;4971145;28;20225;-36
2022/08/24 01:32:01;;;;;;;0.98;0.88;;;18.10;55.70;;;;;;4972130;28;20277;-36
2022/08/24 01:34:32;;;;;;;0.95;0.90;;;18.10;55.60;;;;;;4972196;28;20253;-36
2022/08/24 01:37:03;;;;;;;1.38;0.90;;;18.20;55.60;;;;;;4971399;28;20190;-37
2022/08/24 01:39:39;;;;;;;1.15;0.90;;;18.20;55.60;;;;;;4971625;28;20252;-37
2022/08/24 01:42:10;;;;;;;1.65;1.00;;;18.20;55.50;;;;;;4971111;28;20190;-35
2022/08/24 01:44:42;;;;;;;1.80;1.05;;;18.30;55.70;;;;;;4971913;28;20213;-38
2022/08/24 01:47:15;;;;;;;1.90;0.80;;;18.20;55.50;;;;;;4979157;28;20233;-35
2022/08/24 01:49:47;;;;;;;0.90;0.80;;;18.30;55.50;;;;;;4975296;28;20226;-35
2022/08/24 01:52:20;;;;;;;2.05;1.00;;;18.30;55.40;;;;;;4974849;28;20221;-36
2022/08/24 01:54:52;;;;;;;1.98;0.90;;;18.30;55.40;;;;;;4975756;28;20222;-35
2022/08/24 01:57:27;;;;;;;1.25;0.70;;;18.40;55.30;;;;;;4975895;28;20201;-35
2022/08/24 01:59:57;;;;;;;1.23;0.73;;;18.30;55.30;;;;;;4984680;28;20232;-44
2022/08/24 02:02:32;;;;;;;2.85;0.80;;;18.40;55.30;;;;;;4995413;28;20194;-40
2022/08/24 02:05:03;;;;;;;0.85;0.80;;;18.40;55.30;;;;;;4995701;28;20224;-37
2022/08/24 02:07:34;;;;;;;1.25;0.73;;;18.40;55.30;;;;;;4995397;28;20201;-37
2022/08/24 02:10:07;;;;;;;0.88;0.80;;;18.40;55.30;;;;;;4970269;28;20230;-43
2022/08/24 02:12:39;;;;;;;1.17;0.82;;;18.40;55.20;;;;;;4957017;28;20238;-37
2022/08/24 02:15:11;;;;;;;0.88;0.70;;;18.50;55.20;;;;;;4963013;28;20582;-35
2022/08/24 02:17:44;;;;;;;0.70;0.70;;;18.50;55.20;;;;;;4974842;28;20287;-47
2022/08/24 02:20:15;;;;;;;0.57;0.50;;;18.50;55.10;;;;;;4974766;28;20221;-36
2022/08/24 02:22:46;;;;;;;1.27;0.63;;;18.50;55.10;;;;;;4975111;28;20194;-37
2022/08/24 02:25:18;;;;;;;1.00;0.70;;;18.50;55.10;;;;;;4975061;28;20198;-34
2022/08/24 02:27:49;;;;;;;1.15;0.80;;;18.60;55.20;;;;;;4974593;28;20195;-35
2022/08/24 02:30:20;;;;;;;1.20;0.70;;;18.60;55.20;;;;;;4969298;28;20214;-38
2022/08/24 02:32:51;;;;;;;1.58;0.80;;;18.60;55.10;;;;;;4967735;28;20640;-34
2022/08/24 02:35:21;;;;;;;0.85;0.70;;;18.60;55.00;;;;;;4985480;28;20229;-35
2022/08/24 02:37:52;;;;;;;1.00;0.65;;;18.60;54.90;;;;;;4974693;28;20676;-38
2022/08/24 02:40:25;;;;;;;0.70;0.50;;;18.60;55.00;;;;;;4975331;28;20268;-35
2022/08/24 02:42:56;;;;;;;0.73;0.60;;;18.60;55.00;;;;;;4974836;28;20209;-36
2022/08/24 02:45:27;;;;;;;0.65;0.63;;;18.70;54.90;;;;;;4974249;28;20724;-36
2022/08/24 02:47:58;;;;;;;0.63;0.60;;;18.70;54.80;;;;;;4989472;28;20205;-35
2022/08/24 02:50:29;;;;;;;0.73;0.70;;;18.70;54.90;;;;;;4985270;28;20218;-43
2022/08/24 02:52:59;;;;;;;0.93;0.65;;;18.70;54.90;;;;;;4974444;28;20705;-37
2022/08/24 02:55:32;;;;;;;1.15;0.77;;;18.70;54.90;;;;;;4973528;28;20709;-36
2022/08/24 02:58:03;;;;;;;0.88;0.63;;;18.70;54.90;;;;;;4973222;28;20659;-39
2022/08/24 03:00:35;;;;;;;1.60;0.70;;;18.70;54.90;;;;;;4974027;28;20220;-35
2022/08/24 03:03:05;;;;;;;1.63;0.68;;;18.80;54.90;;;;;;4974842;28;20273;-35
2022/08/24 03:05:36;;;;;;;0.88;0.60;;;18.80;54.80;;;;;;4974448;28;20209;-40
2022/08/24 03:08:07;;;;;;;0.77;0.68;;;18.80;54.80;;;;;;4974339;28;20849;-35
2022/08/24 03:10:40;;;;;;;1.85;0.70;;;18.80;54.90;;;;;;4973487;28;20301;-35
2022/08/24 03:13:11;;;;;;;0.88;0.60;;;18.80;54.80;;;;;;4974343;28;20237;-38
2022/08/24 03:15:41;;;;;;;0.52;0.52;;;18.80;54.80;;;;;;4973066;28;20201;-36
2022/08/24 03:18:12;;;;;;;1.30;0.93;;;18.80;54.80;;;;;;4974741;28;20202;-34
2022/08/24 03:20:43;;;;;;;0.98;0.60;;;18.80;54.70;;;;;;4990257;28;20213;-34
2022/08/24 03:23:14;;;;;;;0.80;0.70;;;18.80;54.80;;;;;;4993409;28;20201;-35
2022/08/24 03:25:46;;;;;;;1.60;0.70;;;18.80;54.70;;;;;;4984911;28;20205;-35
2022/08/24 03:28:17;;;;;;;1.00;0.57;;;18.80;54.70;;;;;;4973655;28;20202;-35
2022/08/24 03:30:48;;;;;;;2.40;0.85;;;18.80;54.70;;;;;;4974060;28;20218;-38
2022/08/24 03:33:19;;;;;;;2.83;0.60;;;18.80;54.70;;;;;;4973727;28;20774;-36
2022/08/24 03:35:50;;;;;;;0.70;0.60;;;18.90;54.80;;;;;;4973381;28;20265;-35
2022/08/24 03:38:21;;;;;;;2.08;0.70;;;18.90;55.10;;;;;;4973271;28;20233;-36
2022/08/24 03:40:53;;;;;;;1.85;0.60;;;18.90;54.80;;;;;;4974074;28;20214;-37
2022/08/24 03:46:11;;;;;;;0.55;0.50;;;19.00;54.80;;;;;;4973787;28;20629;-37
2022/08/24 03:48:45;;;;;;;1.02;0.50;;;19.00;54.70;;;;;;4993472;28;20207;-34
2022/08/24 03:51:17;;;;;;;0.60;0.60;;;19.00;54.70;;;;;;4981729;28;20258;-35
2022/08/24 03:53:48;;;;;;;0.68;0.50;;;19.00;54.70;;;;;;4973436;28;20237;-35
2022/08/24 03:56:21;;;;;;;1.10;0.50;;;19.00;54.70;;;;;;4973059;28;20195;-35
2022/08/24 03:58:52;;;;;;;0.90;0.50;;;19.10;54.80;;;;;;4982065;28;20201;-35
2022/08/24 04:01:23;;;;;;;1.85;0.60;;;19.10;54.80;;;;;;4980069;28;20605;-35
2022/08/24 04:03:54;;;;;;;1.73;0.57;;;19.10;54.80;;;;;;4973258;28;20209;-34
2022/08/24 04:06:25;;;;;;;0.82;0.70;;;19.10;54.70;;;;;;4972708;28;20570;-35
2022/08/24 04:08:55;;;;;;;0.95;0.47;;;19.10;54.70;;;;;;4972908;28;20194;-34
2022/08/24 04:11:30;;;;;;;1.08;0.70;;;19.20;54.70;;;;;;4972213;28;20721;-40
2022/08/24 04:14:01;;;;;;;1.13;0.50;;;19.20;54.60;;;;;;4973526;28;20312;-35
2022/08/24 04:16:32;;;;;;;0.63;0.50;;;19.20;54.60;;;;;;4976506;28;20193;-35
2022/08/24 04:19:02;;;;;;;0.80;0.45;;;19.20;54.50;;;;;;4991803;28;20604;-35
2022/08/24 04:21:35;;;;;;;0.50;0.40;;;19.20;54.50;;;;;;4979990;28;20202;-44
2022/08/24 04:24:07;;;;;;;0.50;0.40;;;19.30;54.60;;;;;;4972517;28;20724;-44
2022/08/24 04:26:41;;;;;;;0.68;0.50;;;19.30;54.40;;;;;;4979923;28;20560;-35
2022/08/24 04:29:13;;;;;;;0.82;0.47;;;19.30;54.40;;;;;;4991275;28;20609;-37
2022/08/24 04:31:45;;;;;;;1.08;0.63;;;19.30;54.40;;;;;;4977907;28;20186;-39
2022/08/24 04:34:17;;;;;;;0.93;0.50;;;19.30;54.50;;;;;;4972641;28;20233;-37
2022/08/24 04:36:48;;;;;;;0.45;0.45;;;19.40;54.40;;;;;;4970335;28;20278;-35
2022/08/24 04:39:18;;;;;;;0.43;0.40;;;19.40;54.40;;;;;;4978282;28;20573;-44
2022/08/24 04:41:51;;;;;;;0.65;0.65;;;19.40;54.40;;;;;;4972714;28;20659;-42
2022/08/24 04:44:22;;;;;;;1.02;0.70;;;19.40;54.30;;;;;;4972414;28;20206;-37
2022/08/24 04:46:52;;;;;;;1.30;0.70;;;19.40;54.20;;;;;;4978904;28;20197;-42
2022/08/24 04:49:23;;;;;;;2.47;1.08;;;19.40;54.20;;;;;;4992639;28;20198;-42
2022/08/24 04:51:54;;;;;;;1.60;0.70;;;19.50;54.20;;;;;;4977619;28;20203;-47
2022/08/24 04:54:25;;;;;;;1.50;0.88;;;19.50;54.30;;;;;;4972550;28;20217;-40
2022/08/24 04:56:57;;;;;;;2.25;1.10;;;19.50;54.20;;;;;;4972365;28;20194;-37
2022/08/24 04:59:28;;;;;;;2.72;1.20;;;19.50;54.20;;;;;;4972587;28;20229;-36
2022/08/24 05:01:58;;;;;;;1.95;0.95;;;19.60;54.20;;;;;;4971859;28;20194;-37
2022/08/24 05:04:31;;;;;;;2.33;0.85;;;19.50;54.20;;;;;;4972930;28;20239;-36
2022/08/24 05:07:01;;;;;;;4.55;1.30;;;19.50;54.10;;;;;;4980947;28;20219;-35
2022/08/24 05:09:32;;;;;;;2.03;1.17;;;19.60;54.10;;;;;;4992094;28;20228;-35
2022/08/24 05:12:05;;;;;;;2.75;1.25;;;19.60;54.20;;;;;;4978569;28;20249;-36
2022/08/24 05:14:36;;;;;;;1.90;1.17;;;19.60;54.20;;;;;;4971737;28;20244;-34
2022/08/24 05:17:07;;;;;;;3.03;1.35;;;19.60;54.20;;;;;;4977525;28;20205;-34
2022/08/24 05:19:37;;;;;;;3.08;1.45;;;19.60;54.30;;;;;;4990788;28;20217;-40
2022/08/24 05:22:08;;;;;;;4.50;1.50;;;19.60;54.30;;;;;;4977262;28;20289;-35
2022/08/24 05:24:39;;;;;;;3.42;1.75;;;19.60;54.20;;;;;;4972582;28;20205;-36
2022/08/24 05:27:12;;;;;;;3.40;1.48;;;19.60;54.20;;;;;;4972667;28;20198;-38
2022/08/24 05:29:42;;;;;;;4.20;1.40;;;19.60;54.20;;;;;;4971937;28;20247;-35
2022/08/24 05:32:13;;;;;;;6.32;2.05;;;19.70;54.30;;;;;;4972504;28;20229;-39
2022/08/24 05:34:44;;;;;;;3.65;1.73;;;19.60;54.10;;;;;;4972077;28;20218;-39
2022/08/24 05:37:14;;;;;;;2.67;1.50;;;19.60;54.20;;;;;;4972250;28;20200;-35
2022/08/24 05:39:45;;;;;;;3.35;1.50;;;19.60;54.20;;;;;;4971778;28;20225;-36
2022/08/24 05:42:18;;;;;;;3.72;1.50;;;19.70;54.30;;;;;;4971988;28;20202;-35
2022/08/24 05:44:48;;;;;;;3.35;1.85;;;19.60;54.40;;;;;;4971739;28;20202;-40
2022/08/24 05:47:19;;;;;;;2.92;1.55;;;19.60;54.40;;;;;;4981507;28;20198;-38
2022/08/24 05:49:51;;;;;;;3.38;1.67;;;19.60;54.50;;;;;;4977204;28;20221;-48
2022/08/24 05:52:23;;;;;;;3.88;1.48;;;19.60;54.50;;;;;;4968522;28;20206;-46
2022/08/24 05:54:55;;;;;;;3.90;1.70;;;19.60;54.50;;;;;;4971795;28;20794;-42
2022/08/24 05:57:32;;;;;;;3.05;1.55;;;19.60;54.40;;;;;;4959728;28;20194;-50
2022/08/24 06:00:03;;;;;;;3.42;1.67;;;19.60;54.30;;;;;;4971095;28;20728;-45
2022/08/24 06:02:33;;;;;;;4.07;1.95;;;19.60;54.50;;;;;;4972038;28;20191;-36
2022/08/24 06:05:04;;;;;;;3.30;1.73;;;19.60;54.60;;;;;;4971439;28;20190;-38
2022/08/24 06:07:35;;;;;;;2.97;1.70;;;19.60;54.60;;;;;;4971529;28;20191;-35
2022/08/24 06:10:06;;;;;;;4.53;2.08;;;19.60;54.60;;;;;;4971028;28;20221;-37
2022/08/24 06:12:38;;;;;;;3.10;1.65;;;19.50;54.50;;;;;;4971619;28;20202;-38
2022/08/24 06:15:10;;;;;;;4.40;1.90;;;19.60;54.60;;;;;;4971313;28;20574;-35
2022/08/24 06:17:40;;;;;;;5.47;2.60;;;19.50;54.60;;;;;;4983777;28;20260;-36
2022/08/24 06:20:12;;;;;;;6.43;3.05;;;19.50;54.50;;;;;;4971258;28;20237;-45
2022/08/24 06:22:45;;;;;;;7.38;3.53;;;19.60;54.30;;;;;;4971604;28;20202;-39
2022/08/24 06:28:04;;;;;;;7.75;3.53;;;19.60;54.10;;;;;;4971366;28;20737;-34
2022/08/24 06:30:35;;;;;;;7.60;3.40;;;19.60;53.90;;;;;;4971741;28;20218;-39
2022/08/24 06:33:06;;;;;;;13.48;4.40;;;19.60;53.80;;;;;;4973261;28;20264;-44
2022/08/24 06:35:37;;;;;;;8.73;4.25;;;19.60;53.80;;;;;;4974495;28;20234;-45
2022/08/24 06:38:08;;;;;;;8.60;4.25;;;19.60;53.70;;;;;;4975328;28;20194;-40
2022/08/24 06:40:39;;;;;;;11.23;4.28;;;19.60;53.70;;;;;;4974363;28;20226;-48
2022/08/24 06:43:12;;;;;;;7.60;3.78;;;19.60;53.70;;;;;;4975353;28;20205;-48
2022/08/24 06:45:45;;;;;;;8.93;3.92;;;19.60;53.60;;;;;;4970917;28;20655;-41
2022/08/24 06:48:16;;;;;;;7.60;3.88;;;19.60;53.60;;;;;;4988121;28;20194;-43
2022/08/24 06:50:50;;;;;;;7.85;3.90;;;19.60;53.60;;;;;;4974619;28;20237;-37
2022/08/24 06:53:20;;;;;;;8.95;3.92;;;19.60;54.20;;;;;;4974874;28;20277;-44
2022/08/24 06:55:54;;;;;;;10.13;3.72;;;19.60;53.60;;;;;;4974662;28;20230;-36
2022/08/24 06:58:27;;;;;;;8.30;4.22;;;19.60;53.60;;;;;;4974084;28;20262;-36
2022/08/24 07:00:58;;;;;;;9.23;3.90;;;19.60;53.60;;;;;;4974332;28;20222;-37
2022/08/24 07:03:29;;;;;;;8.63;3.53;;;19.60;53.40;;;;;;4974282;28;20194;-36
2022/08/24 07:06:00;;;;;;;9.40;3.88;;;19.60;53.50;;;;;;4974810;28;20566;-37
2022/08/24 07:08:31;;;;;;;8.68;3.42;;;19.50;53.40;;;;;;4974076;28;20277;-40
2022/08/24 07:11:02;;;;;;;7.97;3.53;;;19.50;53.40;;;;;;4974699;28;20237;-35
2022/08/24 07:13:34;;;;;;;8.73;3.63;;;19.40;53.30;;;;;;4972242;28;20220;-43
2022/08/24 07:16:05;;;;;;;11.63;3.95;;;19.40;53.50;;;;;;4974999;28;20234;-34
2022/08/24 07:18:36;;;;;;;8.95;3.75;;;19.30;53.50;;;;;;4988497;28;20198;-35
2022/08/24 07:21:07;;;;;;;8.57;3.78;;;19.30;53.70;;;;;;4973734;28;20225;-34
2022/08/24 07:23:39;;;;;;;11.05;4.32;;;19.30;53.70;;;;;;4974283;28;20198;-35
2022/08/24 07:26:11;;;;;;;7.72;3.58;;;19.30;53.70;;;;;;4973965;28;20543;-39
2022/08/24 07:28:44;;;;;;;11.40;4.25;;;19.20;53.70;;;;;;4974381;28;20202;-34
2022/08/24 07:31:14;;;;;;;8.05;3.92;;;19.20;53.70;;;;;;4973544;28;20221;-37
2022/08/24 07:33:45;;;;;;;8.25;3.50;;;19.20;54.40;;;;;;4974296;28;20202;-40
2022/08/24 07:36:18;;;;;;;8.73;4.03;;;19.10;53.80;;;;;;4973608;28;20288;-41
2022/08/24 07:38:50;;;;;;;9.30;3.30;;;19.00;53.80;;;;;;4974087;28;20321;-34
2022/08/24 07:41:24;;;;;;;9.45;3.83;;;19.00;53.80;;;;;;4973409;28;20282;-35
2022/08/24 07:43:57;;;;;;;7.35;3.10;;;19.00;53.90;;;;;;4973189;28;20666;-37
2022/08/24 07:46:27;;;;;;;6.82;3.42;;;18.90;53.90;;;;;;4976236;28;20210;-34
2022/08/24 07:48:58;;;;;;;7.90;3.40;;;18.90;54.00;;;;;;4986674;28;20368;-34
2022/08/24 07:51:29;;;;;;;9.52;3.72;;;18.90;54.10;;;;;;4972726;28;20253;-40
2022/08/24 07:54:00;;;;;;;8.23;3.85;;;18.80;54.10;;;;;;4973832;28;20198;-34
2022/08/24 07:56:31;;;;;;;8.48;3.50;;;18.80;54.10;;;;;;4973518;28;20273;-41
2022/08/24 07:59:03;;;;;;;11.07;4.20;;;18.80;54.10;;;;;;4973069;28;20284;-33
2022/08/24 08:01:35;;;;;;;8.80;3.42;;;18.70;54.00;;;;;;4973437;28;20221;-41
2022/08/24 08:04:06;;;;;;;9.15;3.50;;;18.70;54.10;;;;;;4972529;28;20217;-38
2022/08/24 08:06:37;;;;;;;11.13;3.90;;;18.70;54.10;;;;;;4972499;28;20680;-36
2022/08/24 08:09:08;;;;;;;7.85;3.63;;;18.70;54.10;;;;;;4972148;28;20213;-33
2022/08/24 08:11:39;;;;;;;8.55;3.65;;;18.60;54.20;;;;;;4972391;28;20240;-35
2022/08/24 08:14:13;;;;;;;10.07;3.75;;;18.60;54.30;;;;;;4971962;28;20666;-33
2022/08/24 08:16:44;;;;;;;7.93;3.33;;;18.60;54.40;;;;;;4963712;28;20234;-37
2022/08/24 08:19:14;;;;;;;10.02;3.92;;;18.50;54.30;;;;;;4982550;28;20186;-35
2022/08/24 08:24:33;;;;;;;5.63;3.05;;;18.50;54.50;;;;;;4972372;28;20675;-34
2022/08/24 08:27:04;;;;;;;7.38;3.33;;;18.50;54.50;;;;;;4972323;28;20198;-36
2022/08/24 08:29:38;;;;;;;6.85;3.20;;;18.50;54.50;;;;;;4971478;28;20218;-35
2022/08/24 08:32:09;;;;;;;6.38;3.25;;;18.40;54.50;;;;;;4972343;28;20198;-34
2022/08/24 08:34:40;;;;;;;7.35;3.03;;;18.40;54.60;;;;;;4971877;28;20202;-34
2022/08/24 08:37:11;;;;;;;6.65;3.20;;;18.40;54.60;;;;;;4971462;28;20230;-35
2022/08/24 08:39:42;;;;;;;8.32;3.33;;;18.40;54.60;;;;;;4971299;28;20225;-34
2022/08/24 08:42:33;;;;;;;6.70;3.25;;;18.40;54.60;;;;;;4971636;28;20612;-36
2022/08/24 08:45:17;;;;;;;7.50;3.10;;;18.40;54.70;;;;;;4962347;28;20205;-34
2022/08/24 08:48:27;;;;;;;7.43;3.33;;;18.30;55.30;;;;;;4980324;28;20204;-34
2022/08/24 08:51:33;;;;;;;5.85;3.63;;;18.30;54.70;;;;;;4971566;28;20824;-34
2022/08/24 08:54:45;;;;;;;5.47;2.78;;;18.30;54.70;;;;;;4970101;28;20204;-34
2022/08/24 08:57:28;;;;;;;6.85;3.15;;;18.30;54.80;;;;;;4990872;28;20225;-33
2022/08/24 09:00:14;;;;;;;5.35;2.88;;;18.30;55.00;;;;;;4985447;28;20224;-34
2022/08/24 09:03:18;;;;;;;7.43;3.50;;;18.30;54.80;;;;;;4971383;28;20622;-33
2022/08/24 09:06:31;;;;;;;5.43;2.85;;;18.20;54.80;;;;;;4961491;28;20197;-34
2022/08/24 09:09:12;;;;;;;8.88;3.40;;;18.20;54.90;;;;;;4951718;28;20722;-34
2022/08/24 09:11:52;;;;;;;7.07;3.15;;;18.20;54.90;;;;;;4952306;28;20290;-34
2022/08/24 09:15:00;;;;;;;5.53;2.53;;;18.20;55.10;;;;;;4952215;28;20213;-34
2022/08/24 09:17:52;;;;;;;5.25;2.80;;;18.20;55.10;;;;;;4965915;28;20225;-34
2022/08/24 09:20:39;;;;;;;5.78;2.90;;;18.10;55.10;;;;;;4990296;28;20258;-33
2022/08/24 09:23:17;;;;;;;7.63;2.90;;;18.10;55.20;;;;;;4990361;28;20672;-33
2022/08/24 09:25:59;;;;;;;5.32;3.08;;;18.10;56.20;;;;;;4990174;28;20197;-33
2022/08/24 09:28:43;;;;;;;5.90;2.92;;;18.20;56.20;;;;;;4969806;28;20213;-37
2022/08/24 09:31:57;;;;;;;6.07;3.00;;;18.20;56.10;;;;;;4953519;28;20297;-34
2022/08/24 09:34:38;;;;;;;5.93;3.03;;;18.20;56.10;;;;;;4948666;28;20217;-39
2022/08/24 09:37:32;;;;;;;5.05;3.15;;;18.20;56.00;;;;;;4971056;28;20221;-34
2022/08/24 09:40:13;;;;;;;6.30;2.78;;;18.10;56.00;;;;;;4953054;28;20218;-36
2022/08/24 09:43:15;;;;;;;7.80;2.67;;;18.10;56.10;;;;;;4959601;28;20201;-36
2022/08/24 09:46:14;;;;;;;7.10;2.95;;;18.10;56.10;;;;;;4971769;28;20221;-39
2022/08/24 09:49:13;;;;;;;7.55;2.60;;;18.10;56.10;;;;;;4971348;28;20284;-46
2022/08/24 09:52:08;;;;;;;6.60;3.10;;;18.10;56.10;;;;;;4971776;28;20691;-35
2022/08/24 09:55:02;;;;;;;7.35;2.85;;;18.10;56.10;;;;;;4952588;28;20224;-44
2022/08/24 09:57:49;;;;;;;4.88;3.13;;;18.00;56.00;;;;;;4957049;28;20313;-45
2022/08/24 10:00:25;;;;;;;5.57;3.20;;;18.00;56.00;;;;;;4987202;28;20305;-34
2022/08/24 10:03:04;;;;;;;6.90;3.22;;;18.00;56.00;;;;;;4983523;28;20198;-37
2022/08/24 10:06:08;;;;;;;7.07;2.78;;;18.00;56.00;;;;;;4971830;28;20202;-45
2022/08/24 10:08:59;;;;;;;6.63;3.22;;;18.00;56.10;;;;;;4977907;28;20201;-42
2022/08/24 10:11:44;;;;;;;5.90;2.92;;;18.00;56.10;;;;;;4994273;28;20735;-40
2022/08/24 10:14:26;;;;;;;6.30;3.08;;;17.90;56.10;;;;;;4977529;28;20202;-37
2022/08/24 10:17:04;;;;;;;7.53;3.22;;;17.90;56.10;;;;;;4981967;28;20231;-38
2022/08/24 10:20:01;;;;;;;7.13;3.22;;;17.90;56.20;;;;;;4975164;28;20250;-36
2022/08/24 10:22:48;;;;;;;7.22;3.38;;;17.80;56.20;;;;;;4974992;28;20194;-35
2022/08/24 10:25:32;;;;;;;6.30;2.55;;;17.80;56.20;;;;;;4974289;28;20194;-40
2022/08/24 10:28:21;;;;;;;5.32;3.35;;;17.80;56.10;;;;;;4984095;28;20274;-38
2022/08/24 10:31:05;;;;;;;4.78;2.95;;;17.80;56.10;;;;;;4991047;28;20304;-44
2022/08/24 10:33:46;;;;;;;5.38;2.80;;;17.80;56.10;;;;;;4983075;28;20249;-45
2022/08/24 10:36:46;;;;;;;6.80;3.15;;;17.80;56.10;;;;;;4975408;28;20230;-46
2022/08/24 10:39:51;;;;;;;5.60;3.17;;;17.80;56.10;;;;;;4954037;28;20206;-42
2022/08/24 10:43:35;;;;;;;5.57;2.63;;;17.80;56.10;;;;;;4974834;28;20272;-41
2022/08/24 10:46:40;;;;;;;5.68;3.25;;;17.70;56.10;;;;;;4902874;29;20208;-46
2022/08/24 10:49:46;;;;;;;5.30;2.88;;;17.70;56.10;;;;;;4970591;28;20232;-45
2022/08/24 10:52:49;;;;;;;6.07;2.67;;;17.70;56.20;;;;;;4975160;28;20206;-39
2022/08/24 10:55:23;;;;;;;4.90;2.55;;;17.70;56.20;;;;;;4956242;28;20202;-38
2022/08/24 10:58:16;;;;;;;4.40;2.75;;;17.60;56.20;;;;;;4974911;28;20682;-38
2022/08/24 11:00:47;;;;;;;3.60;2.40;;;17.60;56.20;;;;;;4972647;28;20301;-42
2022/08/24 11:03:21;;;;;;;4.97;2.40;;;17.60;56.20;;;;;;4967539;28;20182;-39
2022/08/24 11:05:54;;;;;;;4.78;2.85;;;17.60;56.20;;;;;;4974689;28;20221;-38
2022/08/24 11:08:26;;;;;;;7.78;2.83;;;17.60;56.20;;;;;;4974471;28;20209;-39
2022/08/24 11:11:10;;;;;;;4.72;2.55;;;17.60;56.20;;;;;;4974202;28;20225;-36
2022/08/24 11:13:57;;;;;;;4.80;2.53;;;17.60;56.20;;;;;;4969492;28;20202;-43
2022/08/24 11:16:32;;;;;;;4.90;2.55;;;17.60;56.30;;;;;;4969961;28;20229;-35
2022/08/24 11:19:04;;;;;;;4.75;3.08;;;17.50;56.20;;;;;;4980397;28;20198;-39
2022/08/24 11:21:42;;;;;;;4.55;2.60;;;17.50;56.30;;;;;;4973659;28;20717;-41
2022/08/24 11:24:26;;;;;;;5.00;2.45;;;17.50;56.30;;;;;;4967870;28;20202;-46
2022/08/24 11:27:00;;;;;;;4.63;2.38;;;17.50;56.30;;;;;;4974502;28;20201;-44
2022/08/24 11:29:58;;;;;;;3.40;2.53;;;17.50;56.40;;;;;;4973383;28;20198;-45
2022/08/24 11:32:32;;;;;;;4.85;2.67;;;17.50;56.30;;;;;;4973356;28;20681;-38
2022/08/24 11:35:09;;;;;;;3.40;2.35;;;17.50;56.20;;;;;;4973836;28;20832;-47
2022/08/24 11:37:40;;;;;;;4.40;2.90;;;17.50;56.20;;;;;;4973659;28;20233;-38
2022/08/24 11:40:12;;;;;;;5.70;2.78;;;17.50;56.20;;;;;;4954501;28;20609;-41
2022/08/24 11:43:00;;;;;;;4.78;2.50;;;17.50;56.30;;;;;;4954870;28;20199;-35
2022/08/24 11:45:38;;;;;;;2.78;2.10;;;17.40;56.30;;;;;;4973432;28;20210;-38
2022/08/24 11:48:18;;;;;;;3.13;2.33;;;17.40;56.30;;;;;;4986866;28;20673;-37
2022/08/24 11:50:56;;;;;;;5.10;2.40;;;17.40;56.40;;;;;;4973432;28;20225;-42
2022/08/24 11:53:39;;;;;;;5.18;2.65;;;17.40;56.40;;;;;;4971497;28;20208;-42
2022/08/24 11:56:16;;;;;;;4.25;2.40;;;17.40;56.40;;;;;;4973192;28;20206;-43
2022/08/24 11:58:54;;;;;;;4.05;2.13;;;17.40;56.50;;;;;;4973685;28;20260;-42
2022/08/24 12:01:33;;;;;;;4.03;2.15;;;17.40;56.40;;;;;;4973322;28;20600;-41
2022/08/24 12:04:31;;;;;;;3.72;2.25;;;17.30;56.40;;;;;;4973140;28;20202;-39
2022/08/24 12:07:12;;;;;;;4.22;2.42;;;17.30;56.30;;;;;;4973871;28;20195;-46
2022/08/24 12:10:02;;;;;;;3.17;2.20;;;17.30;56.30;;;;;;4972280;28;20218;-48
2022/08/24 12:12:40;;;;;;;4.43;2.35;;;17.30;56.30;;;;;;4973358;28;20198;-41
2022/08/24 12:15:17;;;;;;;3.97;2.65;;;17.30;56.30;;;;;;4972129;28;20206;-41
2022/08/24 12:17:57;;;;;;;3.65;2.00;;;17.30;56.40;;;;;;4986640;28;20244;-39
2022/08/24 12:20:33;;;;;;;2.75;2.00;;;17.30;56.40;;;;;;4961525;28;20284;-42
2022/08/24 12:23:07;;;;;;;3.10;2.10;;;17.20;56.40;;;;;;4973577;28;20545;-34
2022/08/24 12:28:29;;;;;;;4.32;2.22;;;17.20;56.50;;;;;;4971898;28;20336;-36
2022/08/24 12:31:07;;;;;;;3.47;2.05;;;17.20;56.60;;;;;;4952458;28;20579;-40
2022/08/24 12:33:45;;;;;;;3.60;2.10;;;17.20;56.60;;;;;;4952844;28;20195;-35
2022/08/24 12:36:24;;;;;;;3.92;2.35;;;17.20;56.50;;;;;;4953191;28;20194;-35
2022/08/24 12:39:04;;;;;;;3.17;2.10;;;17.20;56.50;;;;;;4970294;28;20205;-34
2022/08/24 12:41:40;;;;;;;3.25;1.70;;;17.20;56.50;;;;;;4971810;28;20218;-40
2022/08/24 12:44:14;;;;;;;2.78;1.95;;;17.20;56.50;;;;;;4972006;28;20680;-35
2022/08/24 12:46:53;;;;;;;3.45;2.17;;;17.10;56.40;;;;;;4969928;28;20205;-40
2022/08/24 12:49:29;;;;;;;3.63;2.22;;;17.10;56.50;;;;;;4951993;28;20564;-34
2022/08/24 12:52:30;;;;;;;3.97;2.08;;;17.10;56.50;;;;;;4953641;28;20253;-39
2022/08/24 12:55:20;;;;;;;3.83;2.03;;;17.10;56.60;;;;;;4971602;28;20686;-39
2022/08/24 12:58:06;;;;;;;3.20;2.10;;;17.10;56.60;;;;;;4971655;28;20280;-36
2022/08/24 13:00:48;;;;;;;3.28;2.00;;;17.10;56.60;;;;;;4971537;28;20218;-39
2022/08/24 13:03:32;;;;;;;3.30;2.15;;;17.00;56.60;;;;;;4971283;28;20205;-42
2022/08/24 13:06:09;;;;;;;3.72;2.13;;;17.00;56.60;;;;;;4971065;28;20201;-36
2022/08/24 13:08:42;;;;;;;3.40;2.00;;;17.00;56.60;;;;;;4955875;28;20563;-36
2022/08/24 13:11:16;;;;;;;3.85;2.05;;;17.00;56.60;;;;;;4954226;28;20238;-36
2022/08/24 13:13:50;;;;;;;2.17;1.98;;;17.00;56.50;;;;;;4951822;28;20639;-36
2022/08/24 13:16:52;;;;;;;2.38;1.90;;;17.00;56.50;;;;;;4956312;28;20576;-39
2022/08/24 13:19:39;;;;;;;3.03;1.90;;;17.00;56.60;;;;;;4990304;28;20209;-35
2022/08/24 13:22:45;;;;;;;4.13;2.10;;;17.00;56.60;;;;;;4987660;28;20197;-39
2022/08/24 13:25:43;;;;;;;5.00;2.40;;;16.90;56.60;;;;;;4971083;28;20570;-35
2022/08/24 13:28:37;;;;;;;2.65;1.88;;;16.90;56.70;;;;;;4971409;28;20198;-34
2022/08/24 13:31:27;;;;;;;3.38;2.05;;;16.90;56.70;;;;;;4966723;28;20569;-34
2022/08/24 13:34:01;;;;;;;2.65;1.98;;;16.90;56.70;;;;;;4951842;28;20198;-46
2022/08/24 13:37:05;;;;;;;4.32;2.53;;;16.90;56.70;;;;;;4951520;28;20199;-34
2022/08/24 13:39:50;;;;;;;2.65;1.90;;;16.90;56.70;;;;;;4951845;28;20230;-35
2022/08/24 13:43:01;;;;;;;3.13;2.08;;;16.90;56.60;;;;;;4953777;28;20198;-39
2022/08/24 13:45:37;;;;;;;4.22;1.95;;;16.90;56.70;;;;;;4955976;28;20202;-36
2022/08/24 13:48:31;;;;;;;2.85;1.80;;;16.90;56.70;;;;;;4989653;28;20655;-37